Time;durP1;ratioP1;P1;durP2;ratioP2;P2;SDS_P1;SDS_P2;PMS_P1;PMS_P2;Temp;Humidity;BMP_temperature;BMP_pressure;BME280_temperature;BME280_humidity;BME280_pressure;Samples;Min_cycle;Max_cycle;Signal;HPM_P1;HPM_P2
2022/10/23 00:00:00;;;;;;;9.10;5.25;;;;;;;13.09;58.73;99533.13;4983947;28;20036;-90
2022/10/23 00:02:25;;;;;;;10.63;6.57;;;;;;;12.98;59.79;99543.19;4971715;28;20460;-90
2022/10/23 00:04:51;;;;;;;11.40;6.32;;;;;;;12.68;61.37;99519.88;4973340;28;20018;-90
2022/10/23 00:07:17;;;;;;;12.57;6.35;;;;;;;12.45;61.96;99529.41;4993593;28;20049;-90
2022/10/23 00:09:45;;;;;;;12.73;6.25;;;;;;;12.40;61.57;99530.25;4988703;28;20092;-90
2022/10/23 00:12:11;;;;;;;10.77;5.85;;;;;;;12.27;62.29;99515.47;4977704;28;20029;-90
2022/10/23 00:14:36;;;;;;;10.98;6.05;;;;;;;12.09;62.43;99518.75;4974967;28;20037;-91
2022/10/23 00:17:01;;;;;;;11.75;7.03;;;;;;;12.03;62.92;99511.75;4972352;28;20094;-90
2022/10/23 00:19:27;;;;;;;14.82;7.60;;;;;;;12.08;62.76;99517.16;4975924;28;20519;-90
2022/10/23 00:21:52;;;;;;;13.10;7.72;;;;;;;12.23;61.95;99529.78;4969212;28;20444;-89
2022/10/23 00:24:18;;;;;;;13.48;7.38;;;;;;;12.34;61.78;99531.34;4969470;28;20034;-90
2022/10/23 00:26:46;;;;;;;14.60;8.02;;;;;;;12.15;62.28;99530.34;4981178;28;20132;-90
2022/10/23 00:29:11;;;;;;;15.20;8.07;;;;;;;12.11;62.08;99522.78;4983123;28;20047;-90
2022/10/23 00:31:37;;;;;;;16.20;8.93;;;;;;;12.21;61.55;99519.25;4972773;28;20071;-90
2022/10/23 00:34:03;;;;;;;12.15;7.03;;;;;;;12.22;62.04;99536.25;4972860;28;20030;-90
2022/10/23 00:36:28;;;;;;;14.25;7.80;;;;;;;12.26;61.27;99529.22;4987018;28;20033;-90
2022/10/23 00:38:54;;;;;;;12.57;7.63;;;;;;;12.18;61.13;99514.44;4986597;28;20452;-90
2022/10/23 00:41:24;;;;;;;14.85;7.88;;;;;;;12.34;61.04;99525.97;4965391;28;20037;-90
2022/10/23 00:44:03;;;;;;;11.00;6.68;;;;;;;12.40;61.23;99532.94;4990162;28;20029;-89
2022/10/23 00:46:29;;;;;;;16.00;7.28;;;;;;;12.47;60.99;99536.19;4974118;28;20395;-90
2022/10/23 00:48:54;;;;;;;12.15;6.97;;;;;;;12.61;60.90;99552.56;4973457;28;20046;-90
2022/10/23 00:51:20;;;;;;;14.35;7.07;;;;;;;12.43;60.97;99528.88;4988385;28;20030;-90
2022/10/23 00:53:45;;;;;;;15.68;7.18;;;;;;;12.29;62.14;99543.00;4988064;28;20481;-90
2022/10/23 00:56:11;;;;;;;15.50;7.22;;;;;;;12.12;63.37;99547.91;4993749;28;20037;-91
2022/10/23 00:58:36;;;;;;;13.32;6.93;;;;;;;11.84;63.83;99528.50;4973392;28;20021;-89
2022/10/23 01:01:14;;;;;;;12.43;6.32;;;;;;;11.79;64.32;99543.91;4991817;28;20025;-92
2022/10/23 01:03:39;;;;;;;12.65;6.07;;;;;;;11.77;64.30;99537.97;4977884;28;20529;-92
2022/10/23 01:06:31;;;;;;;9.98;5.82;;;;;;;11.82;64.53;99563.03;4968638;28;20026;-90
2022/10/23 01:09:33;;;;;;;10.43;6.03;;;;;;;11.67;64.68;99555.78;5000624;28;20034;-90
2022/10/23 01:12:04;;;;;;;14.43;6.83;;;;;;;11.51;64.93;99535.28;5013379;28;20407;-89
2022/10/23 01:14:53;;;;;;;10.30;6.03;;;;;;;11.70;64.37;99554.41;4990840;28;20859;-89
2022/10/23 01:17:45;;;;;;;12.02;6.18;;;;;;;11.65;64.64;99560.63;5004626;28;20099;-90
2022/10/23 01:20:40;;;;;;;12.50;6.03;;;;;;;11.57;65.51;99571.97;4992163;28;20427;-89
2022/10/23 01:23:08;;;;;;;15.35;5.88;;;;;;;11.52;66.78;99564.69;4987914;28;20039;-91
2022/10/23 01:25:37;;;;;;;12.70;6.50;;;;;;;11.48;66.28;99579.78;5002153;28;20030;-91
2022/10/23 01:28:05;;;;;;;15.07;6.32;;;;;;;11.28;66.48;99550.91;5005678;28;20060;-90
2022/10/23 01:30:31;;;;;;;16.55;6.45;;;;;;;11.46;66.38;99576.53;4989270;28;20399;-90
2022/10/23 01:33:09;;;;;;;13.98;6.30;;;;;;;11.35;66.95;99571.41;4982661;28;20068;-90
2022/10/23 01:35:49;;;;;;;13.02;6.32;;;;;;;11.31;66.92;99587.31;4988488;28;20029;-90
2022/10/23 01:38:38;;;;;;;13.05;5.90;;;;;;;11.27;66.89;99581.66;4974147;28;20033;-91
2022/10/23 01:41:18;;;;;;;10.20;6.30;;;;;;;11.24;66.96;99603.75;4965895;28;20034;-91
2022/10/23 01:43:59;;;;;;;10.23;5.95;;;;;;;11.26;67.01;99598.88;4971187;28;20049;-90
2022/10/23 01:46:25;;;;;;;13.40;6.20;;;;;;;11.22;66.60;99610.47;4962990;28;20025;-90
2022/10/23 01:48:52;;;;;;;13.82;6.65;;;;;;;11.17;66.71;99603.19;4987823;28;20500;-91
2022/10/23 01:51:18;;;;;;;11.52;6.35;;;;;;;11.41;65.86;99608.06;4974632;28;20038;-90
2022/10/23 01:53:44;;;;;;;12.65;6.82;;;;;;;11.46;65.25;99600.00;4988154;28;20072;-91
2022/10/23 01:56:11;;;;;;;20.73;13.00;;;;;;;11.33;65.87;99587.88;4990430;28;20037;-90
2022/10/23 01:58:36;;;;;;;21.63;11.63;;;;;;;11.47;65.55;99594.31;4993832;28;20021;-90
2022/10/23 02:01:03;;;;;;;13.63;8.40;;;;;;;11.50;65.54;99607.28;4987832;28;20017;-90
2022/10/23 02:03:29;;;;;;;11.45;7.45;;;;;;;11.35;66.00;99609.16;4973113;28;20117;-90
2022/10/23 02:05:55;;;;;;;11.52;6.85;;;;;;;11.41;66.40;99621.56;4963977;28;20030;-90
2022/10/23 02:08:20;;;;;;;12.82;6.78;;;;;;;11.41;66.02;99621.56;4973358;28;20018;-90
2022/10/23 02:10:53;;;;;;;13.25;7.15;;;;;;;11.36;65.92;99630.44;4966389;28;20030;-91
2022/10/23 02:13:50;;;;;;;13.35;7.85;;;;;;;11.52;64.94;99647.47;4988121;28;20042;-91
2022/10/23 02:16:37;;;;;;;14.50;7.45;;;;;;;11.30;65.79;99640.41;4998696;28;20029;-90
2022/10/23 02:19:25;;;;;;;13.57;8.07;;;;;;;11.30;65.96;99658.47;5008420;28;20411;-89
2022/10/23 02:21:53;;;;;;;15.52;8.27;;;;;;;11.28;66.02;99661.44;5016407;28;20029;-91
2022/10/23 02:24:41;;;;;;;12.77;8.02;;;;;;;11.33;65.35;99653.38;5004836;28;20380;-90
2022/10/23 02:27:34;;;;;;;13.20;7.55;;;;;;;11.40;65.37;99663.91;4980414;28;20026;-89
2022/10/23 02:30:05;;;;;;;17.38;8.23;;;;;;;11.25;65.57;99645.81;4984576;28;20108;-89
2022/10/23 02:32:30;;;;;;;15.35;8.15;;;;;;;11.22;66.17;99661.69;4983867;28;20034;-89
2022/10/23 02:34:55;;;;;;;14.52;7.75;;;;;;;11.21;66.41;99671.66;4987256;28;20030;-91
2022/10/23 02:37:21;;;;;;;16.30;7.32;;;;;;;11.28;65.95;99680.31;4970495;28;20025;-89
2022/10/23 02:39:48;;;;;;;12.77;7.65;;;;;;;11.48;65.25;99690.34;4990991;28;20075;-90
2022/10/23 02:42:22;;;;;;;18.77;8.30;;;;;;;11.56;65.18;99693.56;4971694;28;20380;-89
2022/10/23 02:44:56;;;;;;;12.05;7.65;;;;;;;11.63;64.77;99699.53;4997104;28;20124;-91
2022/10/23 02:47:35;;;;;;;11.25;7.30;;;;;;;11.64;64.42;99690.34;5001101;28;20480;-91
2022/10/23 02:50:16;;;;;;;17.25;7.65;;;;;;;11.50;65.20;99707.06;4990029;28;20080;-91
2022/10/23 02:53:10;;;;;;;13.40;7.95;;;;;;;11.55;65.32;99719.75;4986944;28;20095;-91
2022/10/23 02:55:57;;;;;;;11.25;7.35;;;;;;;11.41;65.79;99722.13;4990686;28;20049;-91
2022/10/23 02:58:27;;;;;;;14.48;8.40;;;;;;;11.27;66.10;99713.75;5019366;28;20037;-90
2022/10/23 03:01:04;;;;;;;18.20;7.43;;;;;;;11.37;65.32;99714.84;4973594;28;20026;-90
2022/10/23 03:03:35;;;;;;;13.23;7.57;;;;;;;11.56;64.75;99728.63;4985155;28;20033;-90
2022/10/23 03:06:00;;;;;;;13.93;7.18;;;;;;;11.75;64.28;99747.84;4973527;28;20510;-90
2022/10/23 03:08:26;;;;;;;13.52;7.63;;;;;;;11.68;64.18;99731.91;4974130;28;20021;-90
2022/10/23 03:10:51;;;;;;;16.40;9.45;;;;;;;11.77;64.30;99764.59;4973042;28;20022;-91
2022/10/23 03:13:17;;;;;;;13.82;7.25;;;;;;;11.75;64.28;99756.75;4976711;28;20060;-90
2022/10/23 03:15:43;;;;;;;9.85;6.30;;;;;;;11.76;64.13;99746.75;4978738;28;20083;-91
2022/10/23 03:18:08;;;;;;;12.57;6.72;;;;;;;11.86;64.32;99771.88;4972360;28;20050;-91
2022/10/23 03:20:34;;;;;;;10.05;5.95;;;;;;;11.81;63.49;99762.97;4976163;28;20026;-90
2022/10/23 03:22:59;;;;;;;15.05;6.75;;;;;;;11.94;63.71;99770.56;4971240;28;20506;-91
2022/10/23 03:25:25;;;;;;;12.80;7.20;;;;;;;11.95;63.26;99768.66;4989629;28;20034;-91
2022/10/23 03:27:50;;;;;;;19.70;6.80;;;;;;;12.02;63.40;99767.34;4989887;28;20507;-90
2022/10/23 03:30:16;;;;;;;15.15;6.68;;;;;;;12.11;63.32;99773.00;4976866;28;20048;-90
2022/10/23 03:32:42;;;;;;;15.77;7.63;;;;;;;11.98;63.53;99768.97;4973399;28;20018;-91
2022/10/23 03:35:07;;;;;;;9.40;6.68;;;;;;;12.11;63.37;99773.00;4988599;28;20026;-91
2022/10/23 03:37:33;;;;;;;10.57;6.47;;;;;;;12.09;63.09;99775.97;4976973;28;20048;-90
2022/10/23 03:39:58;;;;;;;13.45;7.13;;;;;;;12.29;62.53;99790.59;4968981;28;20061;-90
2022/10/23 03:42:24;;;;;;;13.00;6.90;;;;;;;12.37;62.39;99789.22;4974644;28;20030;-90
2022/10/23 03:44:49;;;;;;;12.68;7.25;;;;;;;12.38;62.23;99793.56;4994850;28;20095;-91
2022/10/23 03:47:15;;;;;;;10.00;6.05;;;;;;;12.44;62.18;99795.97;4972754;28;20025;-91
2022/10/23 03:49:40;;;;;;;9.48;4.85;;;;;;;12.55;61.33;99810.28;4973778;28;20037;-91
2022/10/23 03:52:06;;;;;;;9.23;5.47;;;;;;;12.58;61.04;99785.44;4990910;28;20025;-91
2022/10/23 03:54:32;;;;;;;10.77;5.90;;;;;;;12.68;61.19;99785.44;4991997;28;20028;-91
2022/10/23 03:56:58;;;;;;;11.02;5.43;;;;;;;12.76;60.62;99785.97;4967855;28;20041;-91
2022/10/23 03:59:26;;;;;;;10.02;5.20;;;;;;;12.98;60.17;99813.50;4969488;28;20033;-90
2022/10/23 04:01:52;;;;;;;13.00;5.60;;;;;;;12.81;60.84;99794.06;4968957;28;20088;-91
2022/10/23 04:04:17;;;;;;;15.23;7.10;;;;;;;12.70;61.62;99799.50;4972634;28;20509;-91
2022/10/23 04:06:43;;;;;;;18.30;7.18;;;;;;;12.78;62.19;99814.31;4967536;28;20121;-90
2022/10/23 04:09:08;;;;;;;17.48;7.70;;;;;;;12.74;62.43;99822.19;4971593;28;20018;-91
2022/10/23 04:11:34;;;;;;;22.98;7.07;;;;;;;12.77;62.15;99810.00;4970985;28;20084;-91
2022/10/23 04:13:59;;;;;;;12.63;7.07;;;;;;;12.95;61.66;99824.84;4974970;28;20472;-91
2022/10/23 04:16:25;;;;;;;11.23;5.93;;;;;;;13.01;61.25;99823.78;4971708;28;20036;-91
2022/10/23 04:18:51;;;;;;;12.02;6.80;;;;;;;12.93;61.50;99806.22;4973325;28;20105;-91
2022/10/23 04:21:16;;;;;;;10.55;6.30;;;;;;;12.97;61.38;99811.88;4970984;28;20025;-90
2022/10/23 04:23:42;;;;;;;11.55;5.28;;;;;;;13.06;61.01;99818.34;4985618;28;20078;-91
2022/10/23 04:26:07;;;;;;;13.10;6.05;;;;;;;12.97;61.05;99825.41;4971475;28;20025;-91
2022/10/23 04:28:33;;;;;;;11.25;6.57;;;;;;;12.93;61.60;99822.44;4968985;28;20125;-91
2022/10/23 04:30:58;;;;;;;11.65;6.40;;;;;;;12.88;61.82;99824.31;5002687;28;20029;-90
2022/10/23 04:33:24;;;;;;;16.17;6.85;;;;;;;12.74;62.69;99840.25;4999873;28;20026;-91
2022/10/23 04:35:49;;;;;;;15.88;7.72;;;;;;;12.63;62.54;99831.34;4974700;28;20029;-91
2022/10/23 04:38:15;;;;;;;10.40;6.38;;;;;;;12.73;62.48;99836.75;4991837;28;20029;-91
2022/10/23 04:40:40;;;;;;;11.00;5.72;;;;;;;12.85;61.78;99833.78;5009892;28;20522;-91
2022/10/23 04:43:06;;;;;;;16.38;6.75;;;;;;;12.83;61.83;99822.44;4990852;28;20448;-91
2022/10/23 04:45:31;;;;;;;11.43;6.10;;;;;;;12.74;62.33;99841.09;5000980;28;20476;-90
2022/10/23 04:47:56;;;;;;;12.82;6.78;;;;;;;12.84;62.08;99836.75;4999242;28;20026;-91
2022/10/23 04:50:22;;;;;;;9.38;5.95;;;;;;;12.91;61.95;99838.09;4985257;28;20053;-91
2022/10/23 04:52:47;;;;;;;11.05;7.03;;;;;;;12.89;62.28;99844.88;4969526;28;20088;-91
2022/10/23 04:55:13;;;;;;;21.83;7.65;;;;;;;12.79;62.18;99810.53;4963430;28;20408;-91
2022/10/23 04:57:39;;;;;;;15.35;7.38;;;;;;;12.94;61.61;99820.53;4966373;28;20116;-91
2022/10/23 05:00:05;;;;;;;11.80;6.82;;;;;;;13.11;61.10;99841.84;4970663;28;20057;-91
2022/10/23 05:02:31;;;;;;;10.60;5.47;;;;;;;13.15;61.15;99842.91;4973334;28;20025;-91
2022/10/23 05:04:56;;;;;;;8.32;5.20;;;;;;;13.13;60.76;99829.66;4973771;28;20091;-90
2022/10/23 05:07:22;;;;;;;10.30;5.45;;;;;;;13.12;60.62;99822.66;4970341;28;20511;-91
2022/10/23 05:09:47;;;;;;;8.55;4.88;;;;;;;13.24;60.39;99838.59;4983874;28;20026;-91
2022/10/23 05:12:13;;;;;;;11.10;5.80;;;;;;;13.27;60.22;99846.13;4971988;28;20021;-91
2022/10/23 05:14:41;;;;;;;9.18;5.03;;;;;;;13.19;60.06;99829.66;4986435;28;20034;-90
2022/10/23 05:17:11;;;;;;;12.32;4.95;;;;;;;13.27;60.05;99829.09;4999021;28;20029;-94
2022/10/23 05:19:44;;;;;;;11.73;5.88;;;;;;;13.36;60.60;99862.63;5018196;28;20573;-92
2022/10/23 05:22:10;;;;;;;9.82;5.10;;;;;;;13.29;60.82;99840.50;5016996;28;20097;-94
2022/10/23 05:24:36;;;;;;;12.32;5.72;;;;;;;13.46;60.48;99869.91;5012358;28;20120;-92
2022/10/23 05:27:03;;;;;;;19.88;6.35;;;;;;;13.37;60.98;99863.47;5046065;28;20423;-92
2022/10/23 05:29:28;;;;;;;9.57;4.80;;;;;;;13.38;60.91;99862.38;5029180;28;20099;-92
2022/10/23 05:31:56;;;;;;;13.63;5.53;;;;;;;13.43;60.95;99868.59;4994448;28;20030;-93
2022/10/23 05:34:23;;;;;;;13.93;6.47;;;;;;;13.52;60.78;99876.94;4999175;28;20054;-92
2022/10/23 05:36:49;;;;;;;10.02;6.22;;;;;;;13.55;60.55;99868.28;5020788;28;20033;-92
2022/10/23 05:39:15;;;;;;;11.45;6.15;;;;;;;13.59;60.53;99865.81;4993554;28;20030;-92
2022/10/23 05:41:40;;;;;;;12.02;6.32;;;;;;;13.60;60.54;99856.63;4975241;28;20025;-92
2022/10/23 05:44:06;;;;;;;10.10;5.32;;;;;;;13.66;60.46;99869.06;4970627;28;20026;-91
2022/10/23 05:46:31;;;;;;;8.77;5.10;;;;;;;13.78;60.38;99893.91;4965166;28;20030;-92
2022/10/23 05:48:57;;;;;;;13.10;5.68;;;;;;;13.74;60.92;99884.72;4967872;28;20121;-92
2022/10/23 05:51:23;;;;;;;12.68;6.63;;;;;;;13.75;61.01;99884.41;4986234;28;20057;-91
2022/10/23 05:53:49;;;;;;;15.77;8.02;;;;;;;13.92;60.94;99913.03;4992124;28;20126;-91
2022/10/23 05:56:14;;;;;;;13.45;6.18;;;;;;;14.00;60.98;99919.78;4969238;28;20560;-91
2022/10/23 05:58:40;;;;;;;15.38;6.05;;;;;;;13.90;60.50;99888.97;4973252;28;20017;-91
2022/10/23 06:01:10;;;;;;;12.77;5.60;;;;;;;13.93;60.53;99885.69;4982213;28;20389;-91
2022/10/23 06:03:36;;;;;;;8.95;6.53;;;;;;;14.04;60.43;99900.00;4970041;28;20022;-91
2022/10/23 06:06:01;;;;;;;15.07;7.40;;;;;;;14.12;60.38;99901.31;4973230;28;20048;-92
2022/10/23 06:08:27;;;;;;;15.18;7.25;;;;;;;14.19;59.74;99884.75;4966687;28;20439;-91
2022/10/23 06:10:53;;;;;;;11.30;6.07;;;;;;;14.33;59.50;99886.56;4969533;28;20415;-91
2022/10/23 06:13:18;;;;;;;18.70;6.65;;;;;;;14.33;59.52;99885.75;4972740;28;20102;-91
2022/10/23 06:15:44;;;;;;;13.45;6.93;;;;;;;14.39;59.85;99889.25;4968016;28;20033;-91
2022/10/23 06:18:09;;;;;;;19.55;6.70;;;;;;;14.48;59.96;99910.03;4985624;28;20438;-91
2022/10/23 06:20:36;;;;;;;11.43;5.88;;;;;;;14.68;60.08;99928.09;4970074;28;20033;-91
2022/10/23 06:23:02;;;;;;;11.10;5.38;;;;;;;14.64;59.80;99910.78;4964195;28;20030;-92
2022/10/23 06:25:27;;;;;;;9.95;5.38;;;;;;;14.76;60.55;99918.56;4959721;28;20022;-90
2022/10/23 06:27:53;;;;;;;7.80;4.63;;;;;;;14.86;60.21;99910.34;4964478;28;20030;-92
2022/10/23 06:30:18;;;;;;;8.65;4.65;;;;;;;14.98;59.74;99917.28;4982579;28;20025;-92
2022/10/23 06:32:46;;;;;;;10.75;4.50;;;;;;;15.10;59.79;99902.25;4982594;28;20036;-92
2022/10/23 06:35:12;;;;;;;7.97;4.55;;;;;;;15.35;59.88;99922.09;4976491;28;20022;-92
2022/10/23 06:37:37;;;;;;;7.72;4.10;;;;;;;15.42;60.59;99911.75;4975064;28;20124;-91
2022/10/23 06:40:04;;;;;;;11.15;4.30;;;;;;;15.64;60.18;99916.66;4974738;28;20029;-91
2022/10/23 06:42:29;;;;;;;7.15;4.63;;;;;;;15.73;59.73;99920.38;4960313;28;20030;-92
2022/10/23 06:44:55;;;;;;;7.28;3.83;;;;;;;15.84;59.39;99915.63;4988772;28;20511;-91
2022/10/23 06:47:21;;;;;;;5.22;3.63;;;;;;;16.10;58.87;99929.72;4963647;28;20022;-92
2022/10/23 06:49:49;;;;;;;4.47;3.35;;;;;;;16.21;58.66;99932.28;4968203;28;20048;-91
2022/10/23 06:52:14;;;;;;;6.63;3.60;;;;;;;16.40;58.31;99949.44;4969964;28;20030;-94
2022/10/23 06:54:40;;;;;;;5.53;4.13;;;;;;;16.49;58.75;99946.84;4968193;28;20033;-92
2022/10/23 06:57:05;;;;;;;6.93;3.60;;;;;;;16.68;57.47;99950.38;4975141;28;20022;-92
2022/10/23 06:59:31;;;;;;;5.55;3.30;;;;;;;16.84;57.03;99966.50;4968904;28;20037;-92
2022/10/23 07:01:56;;;;;;;5.50;3.30;;;;;;;16.89;56.47;99945.47;4960862;28;20065;-92
2022/10/23 07:04:22;;;;;;;8.00;3.00;;;;;;;17.09;55.87;99960.66;4967424;28;20038;-93
2022/10/23 07:06:47;;;;;;;7.18;3.10;;;;;;;17.15;56.11;99959.47;4971956;28;20052;-92
2022/10/23 07:09:13;;;;;;;5.57;3.13;;;;;;;17.16;55.79;99935.75;4983269;28;20071;-91
2022/10/23 07:11:38;;;;;;;5.85;3.05;;;;;;;17.24;55.66;99947.88;4972045;28;20030;-93
2022/10/23 07:14:04;;;;;;;5.22;2.78;;;;;;;17.37;55.22;99952.56;4963038;28;20095;-91
2022/10/23 07:16:30;;;;;;;8.10;2.80;;;;;;;17.38;55.39;99951.44;4974788;28;20025;-93
2022/10/23 07:19:00;;;;;;;5.78;2.90;;;;;;;17.67;54.44;99975.69;4973432;28;20028;-93
2022/10/23 07:21:30;;;;;;;6.22;3.33;;;;;;;17.65;54.90;99975.19;4953431;28;20117;-91
2022/10/23 07:23:56;;;;;;;6.60;2.63;;;;;;;17.74;54.62;99978.84;4962262;28;20381;-91
2022/10/23 07:26:22;;;;;;;4.65;2.75;;;;;;;17.85;54.11;99986.84;4967547;28;20025;-91
2022/10/23 07:28:49;;;;;;;3.88;2.25;;;;;;;17.80;54.56;99960.47;4974588;28;20050;-90
2022/10/23 07:31:15;;;;;;;8.02;2.22;;;;;;;17.87;52.88;99977.28;4981473;28;20026;-92
2022/10/23 07:33:40;;;;;;;3.15;2.10;;;;;;;18.04;52.62;99984.84;4974648;28;20033;-93
2022/10/23 07:36:06;;;;;;;2.80;1.85;;;;;;;18.04;52.59;99970.41;4970236;28;20026;-93
2022/10/23 07:38:32;;;;;;;4.85;1.80;;;;;;;18.25;52.21;99976.25;4978327;28;20053;-91
2022/10/23 07:40:58;;;;;;;5.65;2.00;;;;;;;18.40;51.73;99978.63;4998169;28;20143;-91
2022/10/23 07:43:26;;;;;;;3.40;1.88;;;;;;;18.41;52.13;99972.09;4980347;28;20120;-92
2022/10/23 07:45:52;;;;;;;2.15;1.50;;;;;;;18.38;50.97;99950.88;4973249;28;20021;-92
2022/10/23 07:48:18;;;;;;;2.80;1.95;;;;;;;18.49;51.05;99982.28;4984528;28;20022;-92
2022/10/23 07:50:43;;;;;;;2.70;1.73;;;;;;;18.40;50.43;99954.09;4979487;28;20045;-92
2022/10/23 07:53:17;;;;;;;2.92;1.80;;;;;;;18.40;50.31;99965.00;4979773;28;20128;-91
2022/10/23 07:55:50;;;;;;;3.13;1.40;;;;;;;18.47;50.34;99973.59;4976617;28;20057;-91
2022/10/23 07:58:16;;;;;;;2.38;1.52;;;;;;;18.50;49.95;99972.97;4987169;28;20448;-92
2022/10/23 08:00:44;;;;;;;5.25;1.98;;;;;;;18.67;50.01;99988.66;4985616;28;20057;-91
2022/10/23 08:03:11;;;;;;;3.22;1.70;;;;;;;18.67;50.28;99958.66;4986493;28;20032;-92
2022/10/23 08:05:37;;;;;;;6.38;1.77;;;;;;;18.72;49.73;99974.94;4971762;28;20034;-91
2022/10/23 08:08:03;;;;;;;4.68;1.63;;;;;;;18.69;49.32;99980.19;4996515;28;20104;-93
2022/10/23 08:10:28;;;;;;;3.30;1.73;;;;;;;18.73;49.18;99973.00;4962690;28;20022;-91
2022/10/23 08:12:54;;;;;;;3.47;1.67;;;;;;;18.72;49.27;99966.75;4987901;28;20556;-93
2022/10/23 08:15:19;;;;;;;3.05;1.70;;;;;;;18.89;48.56;99998.06;4964762;28;20121;-91
2022/10/23 08:17:45;;;;;;;2.45;1.80;;;;;;;18.68;48.51;99990.31;4984632;28;20120;-92
2022/10/23 08:20:12;;;;;;;2.75;1.65;;;;;;;18.73;48.71;99975.72;4972398;28;20022;-91
2022/10/23 08:22:38;;;;;;;9.10;3.47;;;;;;;18.88;48.42;99988.22;4987083;28;20365;-91
2022/10/23 08:25:04;;;;;;;2.38;1.65;;;;;;;18.92;48.53;99981.03;4991530;28;20021;-91
2022/10/23 08:27:29;;;;;;;2.75;1.30;;;;;;;19.02;47.29;99991.72;4967744;28;20044;-93
2022/10/23 08:29:55;;;;;;;8.25;1.75;;;;;;;18.93;47.27;99978.00;4970597;28;20022;-92
2022/10/23 08:32:21;;;;;;;2.97;1.50;;;;;;;19.00;46.90;99999.41;5001392;28;20033;-93
2022/10/23 08:34:47;;;;;;;3.63;1.23;;;;;;;18.93;47.08;99988.13;4974579;28;20037;-95
2022/10/23 08:37:13;;;;;;;3.70;1.15;;;;;;;18.83;47.70;99975.53;4970985;28;20403;-95
2022/10/23 08:39:38;;;;;;;2.92;1.30;;;;;;;18.95;46.50;99992.16;4965805;28;20038;-95
2022/10/23 08:42:04;;;;;;;6.88;1.92;;;;;;;18.88;46.59;99983.56;4948598;28;20045;-94
2022/10/23 08:44:46;;;;;;;1.83;1.38;;;;;;;18.98;46.90;100005.16;4947285;28;20036;-94
2022/10/23 08:47:37;;;;;;;2.60;1.40;;;;;;;18.94;46.69;99978.81;4965138;28;20030;-96
2022/10/23 08:50:19;;;;;;;2.92;1.50;;;;;;;18.93;46.71;99971.75;4979441;28;20047;-94
2022/10/23 08:52:51;;;;;;;5.70;1.30;;;;;;;19.09;46.24;100000.31;4949897;28;20125;-94
2022/10/23 08:55:20;;;;;;;;;;;;;;;19.15;46.32;100003.69;4946652;28;20504;-94
2022/10/23 08:58:14;;;;;;;1.98;1.30;;;;;;;18.97;46.01;99965.38;4963825;28;19952;-95
2022/10/23 09:00:40;;;;;;;3.90;1.00;;;;;;;19.02;45.29;99974.53;4962236;28;20042;-95
2022/10/23 09:03:05;;;;;;;3.75;1.10;;;;;;;19.15;46.34;99979.94;4965769;28;20022;-92
2022/10/23 09:05:38;;;;;;;2.92;1.00;;;;;;;19.22;45.64;99995.88;4970410;28;20080;-93
2022/10/23 09:08:19;;;;;;;4.07;1.10;;;;;;;19.30;45.30;100007.97;4972176;28;20052;-95
2022/10/23 09:11:03;;;;;;;2.08;0.90;;;;;;;19.41;45.29;100016.72;5024706;28;20114;-94
2022/10/23 09:13:47;;;;;;;3.08;1.00;;;;;;;19.47;44.74;99999.09;4974824;28;20029;-96
2022/10/23 09:16:24;;;;;;;2.38;1.00;;;;;;;19.45;44.73;100004.88;5015904;28;20022;-95
2022/10/23 09:18:52;;;;;;;1.75;1.20;;;;;;;19.49;44.97;99992.19;4983255;28;20029;-95
2022/10/23 09:21:17;;;;;;;1.50;1.00;;;;;;;19.52;44.40;99985.28;4969059;28;20021;-94
2022/10/23 09:23:43;;;;;;;2.00;1.30;;;;;;;19.52;43.80;99980.63;4971231;28;20033;-95
2022/10/23 09:26:15;;;;;;;1.50;0.90;;;;;;;19.57;44.29;99975.06;4971563;28;20034;-95
2022/10/23 09:28:56;;;;;;;1.73;0.95;;;;;;;19.59;43.61;99961.88;4965551;28;20018;-94
2022/10/23 09:31:21;;;;;;;1.08;0.73;;;;;;;19.70;43.75;99972.53;4973574;28;20064;-95
2022/10/23 09:33:58;;;;;;;5.38;1.10;;;;;;;19.69;43.69;99981.84;4975709;28;20554;-95
2022/10/23 09:36:28;;;;;;;1.50;0.93;;;;;;;19.71;43.42;99957.78;4974571;28;20026;-93
2022/10/23 09:38:55;;;;;;;1.00;0.90;;;;;;;19.79;42.91;99970.66;4979480;28;20113;-93
2022/10/23 09:41:29;;;;;;;8.60;1.48;;;;;;;19.79;43.04;99971.47;4984774;28;20025;-93
2022/10/23 09:44:22;;;;;;;4.13;1.00;;;;;;;19.84;42.89;99962.34;5002669;28;20021;-96
2022/10/23 09:46:52;;;;;;;2.38;1.25;;;;;;;19.73;42.62;99953.59;4999491;28;20033;-95
2022/10/23 09:49:25;;;;;;;1.33;0.90;;;;;;;19.92;42.47;99967.03;4994695;28;20465;-94
2022/10/23 09:54:20;;;;;;;7.13;1.10;;;;;;;19.99;42.78;99958.38;4953885;28;20059;-96
2022/10/23 09:56:49;;;;;;;2.00;1.10;;;;;;;20.01;43.13;99947.94;4893852;29;20059;-96
2022/10/23 09:59:21;;;;;;;2.50;0.80;;;;;;;20.10;42.41;99956.94;4894980;29;20460;-94
2022/10/23 10:01:50;;;;;;;2.42;1.13;;;;;;;20.03;41.93;99942.16;4912912;29;20031;-95
2022/10/23 10:04:15;;;;;;;1.95;0.90;;;;;;;20.15;41.67;99945.03;4890929;29;20039;-96
2022/10/23 10:06:42;;;;;;;3.25;0.90;;;;;;;20.09;41.65;99929.94;4889008;29;20115;-96
2022/10/23 10:09:15;;;;;;;1.85;0.88;;;;;;;20.04;41.44;99950.00;4908507;29;20027;-95
2022/10/23 10:11:51;;;;;;;3.05;0.80;;;;;;;20.05;41.71;99946.16;4921106;29;20389;-96
2022/10/23 10:14:54;;;;;;;1.67;0.70;;;;;;;20.24;41.19;99953.28;4908321;29;20517;-96
2022/10/23 10:17:23;;;;;;;1.65;0.70;;;;;;;20.21;41.34;99945.72;4930832;29;20382;-96
2022/10/23 10:20:00;;;;;;;6.28;1.02;;;;;;;20.12;41.45;99943.75;4915787;29;20023;-96
2022/10/23 10:22:39;;;;;;;2.95;1.00;;;;;;;20.14;42.34;99944.25;4913929;29;20043;-96
2022/10/23 10:25:18;;;;;;;1.33;0.80;;;;;;;20.02;42.04;99913.19;4905308;29;20024;-96
2022/10/23 10:28:24;;;;;;;1.80;0.95;;;;;;;20.15;42.20;99937.66;4889831;29;20020;-95
2022/10/23 10:31:00;;;;;;;2.97;1.00;;;;;;;20.28;41.31;99930.44;4888839;29;20046;-96
2022/10/23 10:33:56;;;;;;;2.58;0.70;;;;;;;20.15;41.34;99907.59;4905676;29;20035;-96
2022/10/23 10:36:47;;;;;;;3.65;0.98;;;;;;;20.17;41.72;99916.28;4907790;29;20028;-95
2022/10/23 10:39:33;;;;;;;3.30;0.90;;;;;;;20.29;42.27;99926.56;4904004;29;20031;-94
2022/10/23 10:42:20;;;;;;;1.23;0.98;;;;;;;20.28;41.99;99922.25;4905784;29;20515;-95
2022/10/23 10:44:56;;;;;;;1.73;0.93;;;;;;;20.21;41.84;99896.47;4936622;29;20393;-94
2022/10/23 10:48:14;;;;;;;1.83;0.90;;;;;;;20.24;41.75;99876.72;4908147;29;20034;-94
2022/10/23 10:51:24;;;;;;;1.88;0.80;;;;;;;20.48;41.41;99903.59;4909172;28;20148;-94
2022/10/23 10:54:08;;;;;;;1.80;0.90;;;;;;;20.53;41.25;99897.97;4972872;28;20042;-96
2022/10/23 10:56:36;;;;;;;4.20;1.25;;;;;;;20.26;41.55;99866.25;4988911;28;20034;-94
2022/10/23 10:59:05;;;;;;;3.30;1.23;;;;;;;20.31;41.59;99880.56;4955395;28;20484;-94
2022/10/23 11:01:40;;;;;;;5.75;1.08;;;;;;;20.46;41.38;99905.84;4953186;28;20035;-94
2022/10/23 11:04:24;;;;;;;2.20;1.20;;;;;;;20.47;41.61;99905.53;4954903;28;20118;-94
2022/10/23 11:06:50;;;;;;;2.15;0.80;;;;;;;20.30;41.61;99883.63;4998923;28;20034;-95
2022/10/23 11:09:21;;;;;;;2.22;1.00;;;;;;;20.24;41.06;99873.97;4947692;28;20018;-96
2022/10/23 11:11:48;;;;;;;3.58;1.00;;;;;;;20.31;40.86;99872.34;4964703;28;20022;-93
2022/10/23 11:14:20;;;;;;;4.78;1.05;;;;;;;20.34;40.95;99884.59;4983782;28;20031;-94
2022/10/23 11:16:51;;;;;;;1.60;0.90;;;;;;;20.47;40.86;99891.84;4959403;29;20027;-93
2022/10/23 11:19:30;;;;;;;2.53;1.70;;;;;;;20.36;40.75;99865.94;4981636;28;20027;-96
2022/10/23 11:21:57;;;;;;;0.90;0.80;;;;;;;20.33;41.10;99875.56;4947791;28;20034;-95
2022/10/23 11:24:50;;;;;;;1.50;1.00;;;;;;;20.46;41.61;99895.72;4959226;28;20030;-96
2022/10/23 11:27:47;;;;;;;4.53;1.25;;;;;;;20.52;41.37;99893.59;4963422;28;20026;-95
2022/10/23 11:30:18;;;;;;;1.75;0.90;;;;;;;20.48;40.99;99865.28;4985778;28;20085;-95
2022/10/23 11:32:53;;;;;;;2.17;1.00;;;;;;;20.66;40.70;99894.28;4942972;28;20034;-95
2022/10/23 11:35:36;;;;;;;2.25;0.80;;;;;;;20.63;40.88;99881.25;4969346;28;20028;-96
2022/10/23 11:38:26;;;;;;;1.00;0.80;;;;;;;20.50;41.48;99857.56;4963756;28;20061;-95
2022/10/23 11:40:53;;;;;;;3.25;0.90;;;;;;;20.53;41.73;99876.88;4950233;28;20040;-95
2022/10/23 11:43:33;;;;;;;1.85;0.95;;;;;;;20.61;41.63;99882.69;4949834;28;20076;-95
2022/10/23 11:46:19;;;;;;;3.22;0.98;;;;;;;20.59;41.46;99874.81;4950617;28;20456;-94